Time;durP1;ratioP1;P1;durP2;ratioP2;P2;SDS_P1;SDS_P2;PMS_P1;PMS_P2;Temp;Humidity;BMP_temperature;BMP_pressure;BME280_temperature;BME280_humidity;BME280_pressure;Samples;Min_cycle;Max_cycle;Signal;HPM_P1;HPM_P2
2021/12/04 00:00:21;;;;;;;10.57;9.48;;;;;;;2.97;95.41;99992.63;4971005;28;20034;-63
2021/12/04 00:02:47;;;;;;;11.75;10.15;;;;;;;2.96;95.73;99987.63;4971920;28;20031;-65
2021/12/04 00:05:12;;;;;;;11.32;10.13;;;;;;;2.97;95.55;99976.44;4954784;28;20037;-63
2021/12/04 00:07:38;;;;;;;11.38;10.20;;;;;;;2.96;95.01;99980.75;4972032;28;20019;-63
2021/12/04 00:10:05;;;;;;;11.60;10.02;;;;;;;2.97;95.32;99972.13;4953690;28;20110;-64
2021/12/04 00:12:32;;;;;;;11.60;10.40;;;;;;;2.98;95.33;99968.66;4952588;28;20113;-63
2021/12/04 00:14:58;;;;;;;11.95;10.70;;;;;;;2.97;95.34;99966.19;4962505;28;20034;-63
2021/12/04 00:17:24;;;;;;;11.07;9.95;;;;;;;2.97;95.27;99953.38;4957510;28;20106;-63
2021/12/04 00:19:49;;;;;;;11.02;9.93;;;;;;;2.97;95.03;99956.78;4952716;28;20110;-63
2021/12/04 00:22:15;;;;;;;11.38;10.18;;;;;;;2.98;94.88;99955.03;4955068;28;20383;-64
2021/12/04 00:24:40;;;;;;;10.98;9.82;;;;;;;2.96;95.75;99955.13;4970991;28;20043;-64
2021/12/04 00:27:06;;;;;;;10.70;9.60;;;;;;;2.99;95.28;99954.94;4956765;28;20512;-64
2021/12/04 00:29:32;;;;;;;11.13;10.02;;;;;;;2.95;95.49;99947.56;4960757;28;20053;-64
2021/12/04 00:32:01;;;;;;;11.07;9.98;;;;;;;2.99;95.12;99949.84;4971463;28;20033;-63
2021/12/04 00:34:28;;;;;;;11.82;10.45;;;;;;;2.97;95.22;99946.53;4968588;28;20485;-63
2021/12/04 00:50:25;;;;;;;12.57;9.88;;;;;;;3.01;94.81;99937.72;4961880;28;20130;-64
2021/12/04 00:52:50;;;;;;;11.07;9.73;;;;;;;3.02;94.81;99939.38;4956091;28;20449;-63
2021/12/04 00:55:16;;;;;;;11.88;9.60;;;;;;;3.02;95.30;99934.25;4968361;28;20023;-64
2021/12/04 00:57:41;;;;;;;11.60;9.77;;;;;;;3.01;94.97;99924.94;4963930;28;20034;-63
2021/12/04 01:00:07;;;;;;;11.68;10.00;;;;;;;3.01;95.04;99935.16;4975193;28;20902;-63
2021/12/04 01:02:33;;;;;;;11.65;10.48;;;;;;;3.01;95.49;99937.72;4975361;28;20105;-63
2021/12/04 01:04:59;;;;;;;10.63;9.48;;;;;;;3.02;95.03;99941.94;4973373;28;20047;-64
2021/12/04 01:07:27;;;;;;;10.75;9.65;;;;;;;3.02;95.22;99934.25;4965533;28;20027;-63
2021/12/04 01:09:53;;;;;;;10.65;9.30;;;;;;;3.05;95.36;99939.19;4955819;28;20114;-63
2021/12/04 01:12:20;;;;;;;10.57;9.57;;;;;;;3.04;95.37;99932.44;4956985;28;20538;-62
2021/12/04 01:14:46;;;;;;;11.70;9.85;;;;;;;3.02;95.10;99936.81;4974763;28;20077;-63
2021/12/04 01:17:11;;;;;;;11.32;10.13;;;;;;;3.03;95.35;99930.75;4962703;28;20551;-63
2021/12/04 01:19:37;;;;;;;11.23;10.02;;;;;;;3.04;95.33;99942.69;4956019;28;20035;-63
2021/12/04 01:22:04;;;;;;;10.88;9.77;;;;;;;3.02;95.25;99939.38;4968128;28;20030;-64
2021/12/04 01:24:30;;;;;;;11.32;10.07;;;;;;;3.07;94.81;99947.59;4958824;28;20049;-63
2021/12/04 01:26:56;;;;;;;12.85;10.52;;;;;;;3.04;95.17;99937.56;4974509;28;20463;-64
2021/12/04 01:29:21;;;;;;;10.88;9.77;;;;;;;3.05;94.91;99939.19;4974096;28;20538;-63
2021/12/04 01:31:47;;;;;;;10.52;9.43;;;;;;;3.04;95.45;99932.44;4974635;28;20411;-65
2021/12/04 01:34:13;;;;;;;12.43;9.70;;;;;;;3.04;95.17;99927.31;4974533;28;20031;-63
2021/12/04 01:36:39;;;;;;;12.07;9.60;;;;;;;3.05;94.94;99920.44;4969995;28;20114;-63
2021/12/04 01:39:05;;;;;;;11.98;9.77;;;;;;;3.03;95.38;99920.50;4965232;28;20097;-63
2021/12/04 01:41:33;;;;;;;11.60;10.40;;;;;;;3.08;95.29;99928.72;4974278;28;20055;-64
2021/12/04 01:43:59;;;;;;;11.02;9.82;;;;;;;3.07;95.39;99927.09;4964739;28;20475;-63
2021/12/04 01:46:26;;;;;;;10.93;9.82;;;;;;;3.08;95.08;99938.97;4967666;28;20113;-63
2021/12/04 01:48:52;;;;;;;11.32;10.07;;;;;;;3.09;95.14;99930.38;4953716;28;20031;-63
2021/12/04 01:51:17;;;;;;;11.00;9.65;;;;;;;3.09;95.03;99925.25;4959747;28;20470;-63
2021/12/04 01:53:42;;;;;;;12.10;10.50;;;;;;;3.09;95.21;99916.72;4956884;28;20460;-63
2021/12/04 01:56:08;;;;;;;11.23;10.07;;;;;;;3.11;95.16;99918.28;4973852;28;20371;-68
2021/12/04 01:58:33;;;;;;;11.45;10.23;;;;;;;3.10;94.75;99921.78;4974331;28;20110;-64
2021/12/04 02:00:59;;;;;;;11.52;10.32;;;;;;;3.09;95.25;99922.69;4967698;28;20390;-63
2021/12/04 02:03:25;;;;;;;11.52;10.32;;;;;;;3.07;95.30;99916.84;4958071;28;20087;-63
2021/12/04 02:05:51;;;;;;;11.75;10.52;;;;;;;3.12;95.08;99917.38;4936325;29;20463;-63
2021/12/04 02:08:19;;;;;;;11.82;10.68;;;;;;;3.11;95.32;99918.28;4944757;29;20850;-63
2021/12/04 02:10:46;;;;;;;12.18;10.90;;;;;;;3.11;95.10;99908.03;4946424;29;20038;-64
2021/12/04 02:13:11;;;;;;;11.63;10.45;;;;;;;3.12;95.16;99909.69;4934378;29;20162;-64
2021/12/04 02:15:37;;;;;;;13.90;10.68;;;;;;;3.12;95.23;99891.75;4935986;29;20046;-64
2021/12/04 02:18:06;;;;;;;11.68;10.48;;;;;;;3.13;95.09;99884.88;4952379;29;20074;-63
2021/12/04 02:20:34;;;;;;;11.65;10.45;;;;;;;3.13;95.30;99879.75;4942309;29;20070;-63
2021/12/04 02:23:01;;;;;;;12.45;10.10;;;;;;;3.11;95.38;99872.19;4948381;29;20525;-64
2021/12/04 02:25:26;;;;;;;13.10;10.27;;;;;;;3.13;95.43;99865.19;4954765;29;20049;-68
2021/12/04 02:27:52;;;;;;;11.82;10.45;;;;;;;3.14;95.18;99861.72;4948378;29;20551;-68
2021/12/04 02:30:22;;;;;;;11.82;10.52;;;;;;;3.11;95.11;99854.25;4935553;29;20479;-63
2021/12/04 02:32:48;;;;;;;11.95;10.50;;;;;;;3.14;95.01;99866.84;4935810;29;20460;-63
2021/12/04 02:35:15;;;;;;;12.48;11.10;;;;;;;3.13;95.05;99870.31;4947868;29;20043;-64
2021/12/04 02:37:41;;;;;;;13.48;11.30;;;;;;;3.17;94.83;99855.59;4934849;29;20083;-63
2021/12/04 02:40:10;;;;;;;13.38;11.98;;;;;;;3.11;95.35;99851.69;4934827;29;20020;-64
2021/12/04 02:42:35;;;;;;;;;;;;;;;3.30;95.37;99850.44;4935252;29;20480;-63
2021/12/04 02:45:04;;;;;;;13.73;11.75;;;;;;;3.19;95.20;99848.59;4948369;29;19948;-64
2021/12/04 02:47:29;;;;;;;12.63;11.15;;;;;;;3.20;95.13;99845.94;4944720;29;20042;-63
2021/12/04 02:49:56;;;;;;;12.30;10.93;;;;;;;3.17;95.13;99843.59;4934855;29;20122;-64
2021/12/04 02:52:23;;;;;;;14.73;12.20;;;;;;;3.17;94.98;99841.03;4947335;29;20031;-64
2021/12/04 02:54:50;;;;;;;14.35;11.80;;;;;;;3.16;95.43;99841.94;4934718;29;20043;-63
2021/12/04 02:57:18;;;;;;;12.90;11.60;;;;;;;3.20;95.12;99850.22;4939407;29;20019;-63
2021/12/04 02:59:44;;;;;;;14.18;12.18;;;;;;;3.16;95.03;99844.50;4953658;29;20062;-64
2021/12/04 03:02:18;;;;;;;14.27;12.43;;;;;;;3.20;95.13;99840.81;4953342;29;20089;-66
2021/12/04 03:04:46;;;;;;;13.38;11.98;;;;;;;3.19;95.06;99839.16;4963491;28;20084;-64
2021/12/04 03:07:12;;;;;;;13.50;12.20;;;;;;;3.23;95.01;99836.41;4953009;28;20063;-63
2021/12/04 03:09:38;;;;;;;13.88;12.38;;;;;;;3.20;95.20;99838.25;4955047;28;20023;-63
2021/12/04 03:12:05;;;;;;;14.25;12.77;;;;;;;3.22;95.06;99837.34;4966483;28;20383;-63
2021/12/04 03:14:31;;;;;;;13.77;12.38;;;;;;;3.23;94.92;99828.72;4972687;28;20031;-64
2021/12/04 03:16:57;;;;;;;13.90;12.52;;;;;;;3.24;95.08;99830.38;4974926;28;20030;-64
2021/12/04 03:19:23;;;;;;;14.45;12.80;;;;;;;3.24;95.32;99831.19;4959461;28;20039;-63
2021/12/04 03:21:48;;;;;;;14.32;12.82;;;;;;;3.23;94.71;99824.41;4990776;28;20028;-63
2021/12/04 03:24:16;;;;;;;13.95;12.52;;;;;;;3.24;95.23;99813.25;4963869;28;20546;-64
2021/12/04 03:26:42;;;;;;;15.95;13.98;;;;;;;3.24;95.29;99817.56;4961359;28;20038;-63
2021/12/04 03:29:11;;;;;;;15.02;13.40;;;;;;;3.25;95.05;99814.06;4969191;28;20023;-64
2021/12/04 03:42:27;;;;;;;17.73;15.93;;;;;;;3.26;94.67;99813.13;4971744;28;20084;-64
2021/12/04 03:44:52;;;;;;;17.02;15.25;;;;;;;3.24;94.93;99809.88;4973789;28;20027;-64
2021/12/04 03:47:19;;;;;;;18.08;16.25;;;;;;;3.26;94.68;99805.44;4974920;28;20515;-63
2021/12/04 03:49:46;;;;;;;18.00;16.10;;;;;;;3.24;94.86;99802.19;4982367;28;20567;-63
2021/12/04 03:52:11;;;;;;;18.60;16.65;;;;;;;3.23;94.90;99803.94;4975931;28;20042;-63
2021/12/04 03:54:37;;;;;;;19.30;17.45;;;;;;;3.23;94.50;99787.72;4974260;28;20045;-63
2021/12/04 03:57:04;;;;;;;18.67;16.77;;;;;;;3.25;95.10;99778.19;4976039;28;20089;-63
2021/12/04 03:59:30;;;;;;;17.95;15.93;;;;;;;3.22;94.91;99791.22;4975638;28;20019;-63
2021/12/04 04:01:56;;;;;;;19.63;17.63;;;;;;;3.22;94.75;99779.22;4972021;28;20438;-63
2021/12/04 04:04:21;;;;;;;19.55;17.50;;;;;;;3.20;94.73;99788.75;4953101;28;20046;-63
2021/12/04 04:06:46;;;;;;;16.75;15.05;;;;;;;3.17;95.05;99784.66;4975915;28;20093;-63
2021/12/04 04:09:12;;;;;;;16.83;15.13;;;;;;;3.25;94.75;99791.00;4971648;28;20027;-63
2021/12/04 04:11:37;;;;;;;15.70;14.20;;;;;;;3.22;94.70;99788.66;4970508;28;20042;-64
2021/12/04 04:14:04;;;;;;;16.10;14.50;;;;;;;3.23;94.71;99782.59;4955756;28;20494;-63
2021/12/04 04:16:29;;;;;;;16.52;14.93;;;;;;;3.23;94.78;99778.31;4962150;28;20070;-64
2021/12/04 04:18:55;;;;;;;16.50;14.85;;;;;;;3.23;94.58;99770.63;4957994;28;20407;-65
2021/12/04 04:21:20;;;;;;;17.05;15.35;;;;;;;3.23;94.91;99767.22;4969448;28;20493;-63
2021/12/04 04:23:46;;;;;;;17.02;15.27;;;;;;;3.22;95.03;99765.59;4980708;28;20019;-66
2021/12/04 04:26:11;;;;;;;17.02;15.32;;;;;;;3.24;94.51;99758.63;4971620;28;20031;-63
2021/12/04 04:28:37;;;;;;;17.35;15.65;;;;;;;3.25;94.71;99760.25;4977353;28;20046;-65
2021/12/04 04:31:02;;;;;;;17.88;16.20;;;;;;;3.23;94.83;99768.06;4962313;28;20138;-64
2021/12/04 04:33:29;;;;;;;17.77;15.93;;;;;;;3.22;94.58;99770.72;4961883;28;20114;-64
2021/12/04 04:58:42;;;;;;;15.80;14.20;;;;;;;3.25;94.34;99760.25;4973931;28;20038;-64
2021/12/04 05:11:35;;;;;;;15.88;14.27;;;;;;;3.26;94.48;99746.50;4961196;28;20543;-64
2021/12/04 05:14:02;;;;;;;14.55;13.15;;;;;;;3.27;94.43;99743.03;4934191;28;20118;-63
2021/12/04 05:16:40;;;;;;;14.10;12.80;;;;;;;3.26;94.56;99738.81;4964085;28;20034;-63
2021/12/04 05:19:12;;;;;;;14.30;12.93;;;;;;;3.26;94.82;99736.25;4962833;28;20066;-63
2021/12/04 05:21:38;;;;;;;14.07;12.57;;;;;;;3.26;94.70;99731.94;4965041;28;20459;-64
2021/12/04 05:24:03;;;;;;;13.45;12.15;;;;;;;3.26;94.46;99723.44;4950579;28;20031;-63
2021/12/04 05:26:29;;;;;;;12.55;11.35;;;;;;;3.26;94.57;99731.13;4956342;28;20050;-63
2021/12/04 05:28:58;;;;;;;12.07;10.95;;;;;;;3.26;94.86;99736.25;4981773;28;20038;-69
2021/12/04 05:31:24;;;;;;;12.00;10.90;;;;;;;3.25;94.44;99739.75;4975169;28;20026;-63
2021/12/04 05:33:50;;;;;;;11.25;10.13;;;;;;;3.27;94.26;99730.22;4955928;28;20474;-65
2021/12/04 05:36:16;;;;;;;12.02;10.73;;;;;;;3.26;94.30;99726.81;4964285;28;20038;-63
2021/12/04 05:38:42;;;;;;;11.05;9.95;;;;;;;3.26;94.62;99736.25;4955316;28;20038;-64
2021/12/04 05:41:08;;;;;;;10.07;9.07;;;;;;;3.19;94.49;99726.44;4956463;28;20077;-64
2021/12/04 05:43:34;;;;;;;11.30;10.20;;;;;;;3.27;94.20;99743.03;4965708;28;20141;-64
2021/12/04 05:46:10;;;;;;;10.23;9.23;;;;;;;3.26;94.42;99746.50;4955114;28;20079;-63
2021/12/04 05:48:43;;;;;;;10.02;9.10;;;;;;;3.28;94.39;99744.69;4961796;28;20122;-63
2021/12/04 05:54:19;;;;;;;9.63;8.68;;;;;;;3.28;94.25;99745.50;4929457;28;20039;-63
2021/12/04 05:56:45;;;;;;;9.55;8.60;;;;;;;3.28;94.50;99742.13;4976691;28;20054;-63
2021/12/04 05:59:10;;;;;;;9.90;8.90;;;;;;;3.25;94.08;99729.50;4981032;28;20490;-63
2021/12/04 06:01:36;;;;;;;14.90;12.68;;;;;;;3.26;94.53;99726.00;4972202;28;20479;-63
2021/12/04 06:04:02;;;;;;;14.27;11.73;;;;;;;3.28;94.29;99729.31;4973633;28;20047;-64
2021/12/04 06:06:27;;;;;;;9.68;8.68;;;;;;;3.26;94.71;99715.75;4965311;28;20180;-64
2021/12/04 06:08:53;;;;;;;9.25;8.35;;;;;;;3.27;94.38;99717.41;4964769;28;20039;-63
2021/12/04 06:11:18;;;;;;;11.38;8.43;;;;;;;3.28;94.00;99719.06;4954498;28;20464;-63
2021/12/04 06:13:45;;;;;;;9.23;8.15;;;;;;;3.27;94.56;99712.25;4964772;28;20475;-64
2021/12/04 06:16:10;;;;;;;9.07;8.15;;;;;;;3.27;94.22;99712.25;4960675;28;20055;-64
2021/12/04 06:18:36;;;;;;;9.15;8.15;;;;;;;3.28;94.25;99714.75;4973800;28;20041;-63
2021/12/04 06:23:45;;;;;;;8.50;7.55;;;;;;;3.28;94.53;99711.38;4966870;28;20124;-63
2021/12/04 06:26:11;;;;;;;8.35;7.47;;;;;;;3.28;94.17;99713.94;4966479;28;20038;-64
2021/12/04 06:28:37;;;;;;;8.07;7.28;;;;;;;3.28;94.88;99701.94;4982262;28;20459;-64
2021/12/04 06:31:03;;;;;;;8.52;7.45;;;;;;;3.28;94.45;99701.13;4975726;28;20038;-65
2021/12/04 06:33:29;;;;;;;8.05;7.20;;;;;;;3.29;94.38;99710.44;4973231;28;20110;-65
2021/12/04 06:35:55;;;;;;;8.75;7.35;;;;;;;3.29;94.50;99710.44;4970367;28;20521;-64
2021/12/04 06:38:20;;;;;;;8.30;7.30;;;;;;;3.31;94.53;99718.84;4949412;28;20677;-64
2021/12/04 06:40:47;;;;;;;8.30;6.82;;;;;;;3.31;94.32;99713.69;4972166;28;20057;-64
2021/12/04 06:43:14;;;;;;;8.57;7.68;;;;;;;3.29;94.22;99715.56;4965184;28;20077;-63
2021/12/04 06:45:43;;;;;;;8.60;7.32;;;;;;;3.30;94.23;99717.19;4944879;28;20479;-69
2021/12/04 06:48:23;;;;;;;8.25;7.25;;;;;;;3.31;94.38;99716.25;4955094;28;20031;-65
2021/12/04 06:53:25;;;;;;;7.93;6.55;;;;;;;3.32;94.29;99715.34;4973218;28;20066;-64
2021/12/04 06:55:53;;;;;;;8.00;6.88;;;;;;;3.31;94.71;99713.69;4973433;28;20019;-64
2021/12/04 06:58:19;;;;;;;7.90;6.93;;;;;;;3.31;94.44;99713.69;4959830;28;20163;-65
2021/12/04 07:00:45;;;;;;;8.27;6.50;;;;;;;3.30;94.38;99719.75;4971537;28;20475;-64
2021/12/04 07:03:11;;;;;;;7.72;6.57;;;;;;;3.31;94.23;99711.97;4971086;28;20050;-64
2021/12/04 07:05:36;;;;;;;9.07;6.63;;;;;;;3.31;94.49;99714.53;4962313;28;20069;-64
2021/12/04 07:08:04;;;;;;;8.85;6.57;;;;;;;3.33;94.11;99711.88;4970966;28;20134;-64
2021/12/04 07:10:29;;;;;;;8.10;7.30;;;;;;;3.31;94.30;99713.69;4971078;28;20034;-64
2021/12/04 07:12:55;;;;;;;9.38;7.25;;;;;;;3.33;94.52;99706.75;4963283;28;20511;-65
2021/12/04 07:15:20;;;;;;;8.43;7.40;;;;;;;3.30;94.26;99696.69;4972614;28;20026;-65
2021/12/04 07:17:45;;;;;;;9.25;7.25;;;;;;;3.34;94.55;99713.50;4967101;28;20067;-64
2021/12/04 07:20:11;;;;;;;10.05;7.28;;;;;;;3.34;94.62;99713.50;4968938;28;20455;-64
2021/12/04 07:22:37;;;;;;;9.13;7.90;;;;;;;3.33;94.34;99702.44;4969465;28;20034;-64
2021/12/04 07:25:04;;;;;;;9.77;7.68;;;;;;;3.33;94.68;99706.75;4970831;28;20530;-64
2021/12/04 07:27:30;;;;;;;10.32;8.05;;;;;;;3.33;94.50;99701.63;4945978;28;20034;-64
2021/12/04 07:29:56;;;;;;;10.35;8.60;;;;;;;3.34;94.52;99698.13;4963599;28;20391;-63
2021/12/04 07:32:21;;;;;;;11.05;8.18;;;;;;;3.35;94.37;99697.19;4955132;28;20725;-64
2021/12/04 07:34:47;;;;;;;12.38;8.95;;;;;;;3.33;94.18;99710.13;4966605;28;20573;-64
2021/12/04 07:37:12;;;;;;;11.73;9.18;;;;;;;3.37;94.57;99715.84;4966712;28;20035;-66
2021/12/04 07:39:38;;;;;;;10.40;8.68;;;;;;;3.33;94.50;99702.44;4955332;28;20033;-64
2021/12/04 07:42:03;;;;;;;11.43;8.48;;;;;;;3.37;94.24;99706.41;4935870;29;20046;-65
2021/12/04 07:44:29;;;;;;;10.95;8.93;;;;;;;3.36;94.39;99709.91;4966014;28;20033;-65
2021/12/04 07:46:54;;;;;;;10.82;8.45;;;;;;;3.36;94.13;99702.22;4966047;28;20037;-66
2021/12/04 07:49:20;;;;;;;12.40;9.27;;;;;;;3.40;94.50;99697.69;4960754;28;20033;-66
2021/12/04 07:51:45;;;;;;;11.35;9.00;;;;;;;3.40;94.40;99697.69;4961684;28;20029;-65
2021/12/04 07:54:12;;;;;;;10.77;8.82;;;;;;;3.42;94.08;99695.84;4953749;28;20022;-65
2021/12/04 07:56:37;;;;;;;11.40;9.07;;;;;;;3.41;94.62;99696.78;4945038;28;20350;-66
2021/12/04 07:59:03;;;;;;;11.38;9.25;;;;;;;3.42;94.54;99698.41;4960972;28;20035;-65
2021/12/04 08:01:28;;;;;;;12.30;9.50;;;;;;;3.43;94.83;99697.47;4953315;28;20019;-65
2021/12/04 08:03:54;;;;;;;11.88;9.45;;;;;;;3.44;94.72;99688.84;4965585;28;20079;-64
2021/12/04 08:06:19;;;;;;;12.43;9.43;;;;;;;3.43;94.52;99694.91;4971923;28;20502;-64
2021/12/04 08:08:45;;;;;;;10.75;9.07;;;;;;;3.44;94.72;99686.28;4971929;28;20039;-64
2021/12/04 08:11:10;;;;;;;11.90;9.23;;;;;;;3.44;94.30;99688.84;4962635;28;20475;-64
2021/12/04 08:13:36;;;;;;;12.23;9.68;;;;;;;3.41;94.74;99678.81;4953463;28;20042;-65
2021/12/04 08:16:01;;;;;;;13.27;9.52;;;;;;;3.46;94.51;99687.00;4969296;28;20142;-64
2021/12/04 08:18:27;;;;;;;12.93;10.20;;;;;;;3.47;94.63;99683.53;4969691;28;20463;-64
2021/12/04 08:20:52;;;;;;;10.65;9.20;;;;;;;3.44;94.42;99668.34;4963129;28;20034;-64
2021/12/04 08:23:18;;;;;;;12.63;10.32;;;;;;;3.50;94.77;99672.22;4971725;28;20030;-65
2021/12/04 08:25:45;;;;;;;16.98;11.70;;;;;;;3.47;94.61;99657.88;4969741;28;20419;-65
2021/12/04 08:28:11;;;;;;;13.98;10.93;;;;;;;3.47;94.39;99647.63;4966176;28;20459;-64
2021/12/04 08:30:40;;;;;;;13.23;10.40;;;;;;;3.52;94.50;99650.69;4952610;28;20042;-65
2021/12/04 08:33:06;;;;;;;12.38;9.95;;;;;;;3.52;94.75;99658.38;4954224;28;20070;-64
2021/12/04 08:35:35;;;;;;;11.77;10.05;;;;;;;3.50;94.66;99634.63;4969964;28;20027;-64
2021/12/04 08:38:01;;;;;;;11.77;9.88;;;;;;;3.52;94.46;99637.88;4959252;28;20038;-65
2021/12/04 08:40:28;;;;;;;13.10;10.65;;;;;;;3.55;94.88;99637.66;4955901;28;20026;-64
2021/12/04 08:42:54;;;;;;;15.35;10.70;;;;;;;3.56;94.58;99621.34;4968124;28;20533;-65
2021/12/04 08:45:19;;;;;;;13.68;10.80;;;;;;;3.60;94.63;99627.06;4980005;28;20114;-64
2021/12/04 08:47:45;;;;;;;13.23;10.52;;;;;;;3.61;94.74;99619.28;4962743;28;20486;-65
2021/12/04 08:50:17;;;;;;;12.25;10.15;;;;;;;3.59;94.45;99628.00;4971177;28;20050;-64
2021/12/04 08:52:44;;;;;;;13.05;11.10;;;;;;;3.61;94.43;99634.66;4971768;28;20089;-64
2021/12/04 08:55:11;;;;;;;13.10;10.85;;;;;;;3.61;94.57;99624.41;4971423;28;20070;-65
2021/12/04 08:57:36;;;;;;;12.90;10.60;;;;;;;3.63;94.78;99622.53;4972779;28;20030;-65
2021/12/04 09:00:09;;;;;;;13.65;11.02;;;;;;;3.63;94.72;99632.81;4971943;28;20039;-65
2021/12/04 09:02:34;;;;;;;12.38;10.35;;;;;;;3.65;94.22;99630.94;4969414;28;20066;-64
2021/12/04 09:05:00;;;;;;;12.40;10.88;;;;;;;3.67;94.85;99639.34;4949587;28;20495;-64
2021/12/04 09:07:25;;;;;;;12.52;10.55;;;;;;;3.67;94.65;99639.34;4974147;28;20027;-64
2021/12/04 09:09:55;;;;;;;12.63;10.50;;;;;;;3.69;94.41;99639.22;4956370;28;20456;-64
2021/12/04 09:12:23;;;;;;;12.55;10.73;;;;;;;3.69;94.55;99642.63;4972460;28;20534;-63
2021/12/04 09:14:50;;;;;;;11.68;10.48;;;;;;;3.71;94.30;99629.69;4973172;28;20034;-64
2021/12/04 09:17:18;;;;;;;12.07;10.05;;;;;;;3.71;94.57;99624.53;4968619;28;20056;-64
2021/12/04 09:19:43;;;;;;;12.13;10.80;;;;;;;3.73;94.59;99633.78;4970375;28;20463;-63
2021/12/04 09:22:24;;;;;;;11.65;10.45;;;;;;;3.77;94.71;99636.09;4973194;28;20062;-63
2021/12/04 09:24:54;;;;;;;12.02;10.20;;;;;;;3.77;94.59;99628.41;4982415;28;20102;-64
2021/12/04 09:35:28;;;;;;;12.10;10.65;;;;;;;3.83;94.48;99617.72;4975065;28;19950;-64
2021/12/04 10:22:22;;;;;;;18.02;16.13;;;;;;;4.08;94.14;99581.63;4935695;29;20082;-65
2021/12/04 10:33:19;;;;;;;20.27;17.85;;;;;;;4.08;93.75;99550.84;4970668;28;20547;-64
2021/12/04 10:35:46;;;;;;;22.20;19.02;;;;;;;4.11;93.89;99554.91;4972917;28;20058;-66
2021/12/04 10:38:24;;;;;;;17.25;15.43;;;;;;;4.11;93.76;99545.47;4966253;28;20539;-64
2021/12/04 10:40:51;;;;;;;17.83;14.63;;;;;;;4.07;93.75;99549.22;4954320;28;20058;-64
2021/12/04 10:43:28;;;;;;;16.50;14.27;;;;;;;4.10;93.82;99543.03;4939331;28;20031;-64
2021/12/04 10:45:57;;;;;;;16.35;13.13;;;;;;;4.06;93.83;99527.03;4964722;28;20058;-63
2021/12/04 10:48:27;;;;;;;16.38;13.25;;;;;;;4.12;93.61;99526.56;4971591;28;20030;-68
2021/12/04 10:53:51;;;;;;;16.23;12.88;;;;;;;4.10;93.89;99518.19;4961377;28;20070;-63
2021/12/04 10:59:16;;;;;;;14.60;12.40;;;;;;;4.15;93.49;99510.97;4977992;28;20045;-74
2021/12/04 11:02:07;;;;;;;13.68;11.38;;;;;;;4.14;93.53;99504.19;4954466;28;20019;-64
2021/12/04 11:04:41;;;;;;;12.63;10.70;;;;;;;4.17;93.68;99508.28;4966091;28;20126;-64
2021/12/04 11:07:55;;;;;;;13.73;10.25;;;;;;;4.24;93.74;99492.31;4936327;28;20034;-64
2021/12/04 11:44:10;;;;;;;15.45;12.43;;;;;;;4.42;93.29;99451.56;4960189;28;20041;-63
2021/12/04 11:46:20;;;;;;;16.15;12.95;;;;;;;4.47;93.49;99458.88;4962398;28;20407;-64
2021/12/04 11:48:46;;;;;;;16.00;12.82;;;;;;;4.46;93.41;99462.41;4969312;28;20034;-65
2021/12/04 11:51:19;;;;;;;14.70;12.35;;;;;;;4.46;93.38;99447.00;4981310;28;20022;-64
2021/12/04 11:53:45;;;;;;;18.42;13.13;;;;;;;4.46;93.67;99447.00;4972638;28;20015;-64
2021/12/04 11:56:27;;;;;;;15.40;12.63;;;;;;;4.53;93.35;99448.16;4939585;28;20059;-64
2021/12/04 11:58:53;;;;;;;15.77;12.85;;;;;;;4.54;93.75;99439.53;4980667;28;20026;-64
2021/12/04 12:01:27;;;;;;;15.00;12.50;;;;;;;4.56;93.49;99432.50;4969603;28;20162;-63
2021/12/04 12:03:56;;;;;;;15.82;13.13;;;;;;;4.56;93.57;99422.22;4951316;29;20067;-64
2021/12/04 12:06:50;;;;;;;16.27;13.68;;;;;;;4.64;93.71;99419.84;4963317;28;20031;-64
2021/12/04 12:09:26;;;;;;;16.52;14.20;;;;;;;4.62;93.63;99421.75;4945552;28;20039;-64
2021/12/04 12:11:58;;;;;;;16.42;14.35;;;;;;;4.63;93.51;99417.41;4960376;28;20025;-64
2021/12/04 12:14:55;;;;;;;17.13;15.07;;;;;;;4.64;93.27;99414.72;4969747;28;20077;-64
2021/12/04 12:17:32;;;;;;;14.90;13.27;;;;;;;4.66;93.39;99412.88;4964828;28;20018;-64
2021/12/04 12:19:58;;;;;;;15.00;13.35;;;;;;;4.65;93.23;99413.00;4959623;28;20122;-64
2021/12/04 12:22:34;;;;;;;14.32;12.90;;;;;;;4.65;93.17;99403.53;4970013;28;20491;-64
2021/12/04 12:25:19;;;;;;;14.55;12.98;;;;;;;4.67;93.06;99409.34;4961752;28;20070;-64
2021/12/04 12:36:19;;;;;;;14.63;12.60;;;;;;;4.70;93.09;99405.72;4971702;28;20093;-65
2021/12/04 12:39:01;;;;;;;14.20;12.55;;;;;;;4.70;93.37;99404.00;4971447;28;20031;-64
2021/12/04 12:41:31;;;;;;;14.25;12.60;;;;;;;4.70;93.30;99414.25;4964750;28;20449;-63
2021/12/04 12:43:56;;;;;;;14.30;12.80;;;;;;;4.69;92.91;99407.47;4972789;28;20471;-65
2021/12/04 12:46:50;;;;;;;14.85;13.25;;;;;;;4.72;93.30;99420.09;4956279;28;20035;-64
2021/12/04 12:49:38;;;;;;;14.70;13.00;;;;;;;4.73;93.39;99424.28;4945492;28;20117;-64
2021/12/04 12:52:12;;;;;;;17.00;14.60;;;;;;;4.72;93.25;99429.53;4972037;28;20110;-64
2021/12/04 12:54:55;;;;;;;17.85;15.50;;;;;;;4.68;92.84;99421.25;4956744;28;20283;-65
2021/12/04 12:57:31;;;;;;;17.35;15.48;;;;;;;4.66;93.34;99412.06;4961398;28;20038;-64
2021/12/04 13:11:46;;;;;;;22.50;19.33;;;;;;;4.64;93.92;99391.63;4961566;28;20129;-64
2021/12/04 13:14:40;;;;;;;23.15;19.98;;;;;;;4.62;93.88;99401.19;4971999;28;20070;-65
2021/12/04 13:17:10;;;;;;;23.52;20.30;;;;;;;4.63;93.87;99397.69;4964036;28;20049;-65
2021/12/04 13:19:41;;;;;;;24.17;21.58;;;;;;;4.63;93.76;99402.81;4967469;28;20074;-64
2021/12/04 13:22:13;;;;;;;22.88;20.48;;;;;;;4.62;94.00;99400.38;4957393;28;20066;-65
2021/12/04 13:24:41;;;;;;;25.00;21.63;;;;;;;4.63;94.04;99402.81;4972491;28;20058;-64
2021/12/04 13:29:40;;;;;;;25.63;22.83;;;;;;;4.63;94.00;99396.88;4967747;28;20125;-65
2021/12/04 13:32:06;;;;;;;24.02;21.25;;;;;;;4.64;94.17;99394.19;4970625;28;20026;-64
2021/12/04 13:34:33;;;;;;;22.10;19.75;;;;;;;4.63;93.88;99391.75;4976877;28;20027;-64
2021/12/04 13:36:59;;;;;;;22.90;20.40;;;;;;;4.62;94.20;99385.78;4967011;28;20488;-66
2021/12/04 13:39:25;;;;;;;22.90;20.50;;;;;;;4.64;94.35;99394.19;4955383;28;20039;-64
2021/12/04 13:41:53;;;;;;;20.65;18.45;;;;;;;4.61;94.42;99389.31;4955092;28;20027;-65
2021/12/04 13:44:22;;;;;;;21.03;18.93;;;;;;;4.62;94.29;99380.66;4973858;28;20037;-64
2021/12/04 13:46:54;;;;;;;19.85;17.88;;;;;;;4.64;94.47;99386.47;4961611;28;20035;-64
2021/12/04 13:49:26;;;;;;;20.27;18.17;;;;;;;4.65;94.36;99385.56;4937550;28;20512;-64
2021/12/04 13:51:57;;;;;;;20.05;17.95;;;;;;;4.64;94.21;99389.03;4981024;28;20034;-64
2021/12/04 13:54:28;;;;;;;19.27;17.38;;;;;;;4.66;94.43;99399.22;4974263;28;20665;-63
2021/12/04 13:56:54;;;;;;;19.23;17.33;;;;;;;4.63;94.09;99392.56;4980093;28;20061;-63
2021/12/04 13:59:25;;;;;;;18.58;16.67;;;;;;;4.63;94.54;99390.00;4977465;28;20379;-64
2021/12/04 14:01:51;;;;;;;18.33;16.52;;;;;;;4.64;94.32;99389.03;4961865;28;20034;-64
2021/12/04 14:04:17;;;;;;;18.90;17.00;;;;;;;4.64;94.55;99389.03;4959719;28;20055;-64
2021/12/04 14:06:55;;;;;;;19.35;17.45;;;;;;;4.66;94.46;99389.75;4953821;28;20031;-64
2021/12/04 14:09:28;;;;;;;18.60;16.70;;;;;;;4.66;94.09;99392.31;4961628;28;20070;-64
2021/12/04 14:11:54;;;;;;;18.40;16.60;;;;;;;4.63;94.62;99392.56;4958901;28;20073;-64
2021/12/04 14:14:23;;;;;;;19.17;17.20;;;;;;;4.63;94.56;99392.56;4958218;28;20038;-64
2021/12/04 14:16:51;;;;;;;;;;;;;;;4.77;93.96;99389.72;4965922;28;20015;-64
2021/12/04 14:19:18;;;;;;;19.48;17.50;;;;;;;4.67;94.48;99393.94;4963748;28;19991;-64
2021/12/04 14:22:08;;;;;;;18.88;16.98;;;;;;;4.70;94.53;99388.59;4952754;28;20030;-65
2021/12/04 14:24:44;;;;;;;18.92;16.50;;;;;;;4.68;94.67;99390.44;4954816;28;20051;-64
2021/12/04 14:27:12;;;;;;;19.23;17.23;;;;;;;4.67;94.37;99396.53;4954458;28;20054;-64
2021/12/04 14:29:46;;;;;;;19.88;17.25;;;;;;;4.69;94.33;99396.38;4971381;28;20066;-65
2021/12/04 14:32:12;;;;;;;19.05;17.15;;;;;;;4.69;94.43;99399.78;4980626;28;20030;-64
2021/12/04 14:34:38;;;;;;;18.75;16.40;;;;;;;4.68;94.80;99400.72;4973815;28;20081;-64
2021/12/04 14:37:12;;;;;;;17.80;15.90;;;;;;;4.69;94.48;99407.47;4968533;28;20424;-64
2021/12/04 14:39:40;;;;;;;15.80;14.07;;;;;;;4.68;94.68;99408.41;4954363;28;20031;-65
2021/12/04 14:42:17;;;;;;;17.55;14.65;;;;;;;4.70;94.64;99414.25;4946245;28;20043;-64